createdAt,value
2022-09-06T00:01:12.358Z,48.57
2022-09-06T00:03:39.889Z,49.00
2022-09-06T00:06:12.254Z,48.73
2022-09-06T00:08:39.607Z,48.56
2022-09-06T00:11:07.145Z,48.76
2022-09-06T00:13:33.921Z,48.88
2022-09-06T00:16:26.311Z,49.10
2022-09-06T00:18:55.062Z,49.32
2022-09-06T00:21:27.889Z,48.61
2022-09-06T00:23:54.844Z,48.79
2022-09-06T00:26:22.771Z,48.96
2022-09-06T00:28:49.855Z,49.79
2022-09-06T00:31:19.494Z,49.08
2022-09-06T00:33:46.274Z,48.30
2022-09-06T00:36:13.404Z,47.16
2022-09-06T00:38:41.344Z,47.85
2022-09-06T00:41:10.116Z,47.77
2022-09-06T00:43:37.151Z,48.16
2022-09-06T00:46:05.937Z,47.68
2022-09-06T00:48:33.459Z,46.92
2022-09-06T00:51:04.090Z,47.89
2022-09-06T00:53:32.061Z,48.42
2022-09-06T00:55:59.630Z,48.58
2022-09-06T00:58:27.255Z,47.70
2022-09-06T01:00:54.715Z,48.96
2022-09-06T01:03:22.999Z,47.71
2022-09-06T01:06:04.920Z,47.62
2022-09-06T01:09:16.589Z,48.16
2022-09-06T01:12:01.811Z,48.08
2022-09-06T01:14:47.396Z,47.44
2022-09-06T01:17:31.420Z,47.74
2022-09-06T01:20:16.723Z,48.13
2022-09-06T01:23:16.919Z,48.30
2022-09-06T01:25:59.997Z,48.85
2022-09-06T01:28:43.794Z,48.35
2022-09-06T01:31:25.448Z,48.87
2022-09-06T01:34:18.995Z,49.23
2022-09-06T01:37:08.970Z,49.68
2022-09-06T01:39:38.797Z,48.61
2022-09-06T01:42:28.198Z,48.14
2022-09-06T01:44:59.864Z,47.82
2022-09-06T01:47:46.311Z,47.28
2022-09-06T01:50:13.120Z,47.16
2022-09-06T01:52:50.558Z,47.51
2022-09-06T01:55:31.466Z,47.77
2022-09-06T01:58:22.370Z,47.33
2022-09-06T02:01:01.200Z,46.98
2022-09-06T02:03:49.621Z,47.28
2022-09-06T02:06:22.386Z,47.64
2022-09-06T02:08:54.800Z,47.43
2022-09-06T02:11:24.723Z,47.20
2022-09-06T02:13:56.759Z,47.18
2022-09-06T02:16:26.837Z,46.96
2022-09-06T02:19:06.931Z,46.51
2022-09-06T02:21:38.499Z,47.08
2022-09-06T02:24:10.203Z,46.80
2022-09-06T02:26:40.945Z,46.99
2022-09-06T02:29:07.979Z,46.52
2022-09-06T02:31:49.539Z,46.25
2022-09-06T02:34:18.907Z,46.97
2022-09-06T02:36:46.559Z,46.63
2022-09-06T02:39:13.583Z,46.42
2022-09-06T02:41:41.391Z,45.97
2022-09-06T02:44:08.443Z,46.73
2022-09-06T02:46:35.399Z,46.09
2022-09-06T02:49:02.151Z,46.38
2022-09-06T02:51:28.796Z,46.28
2022-09-06T02:53:55.730Z,45.88
2022-09-06T02:56:22.891Z,45.87
2022-09-06T02:58:50.033Z,45.73
2022-09-06T03:01:16.736Z,45.28
2022-09-06T03:03:43.478Z,45.74
2022-09-06T03:06:10.208Z,45.25
2022-09-06T03:08:36.975Z,45.27
2022-09-06T03:11:03.912Z,46.11
2022-09-06T03:13:30.863Z,45.47
2022-09-06T03:15:59.706Z,45.11
2022-09-06T03:18:28.539Z,45.77
2022-09-06T03:20:56.216Z,45.54
2022-09-06T03:23:26.252Z,45.39
2022-09-06T03:25:53.466Z,45.43
2022-09-06T03:28:21.205Z,45.50
2022-09-06T03:30:50.345Z,45.47
2022-09-06T03:33:17.666Z,45.35
2022-09-06T03:35:53.596Z,45.38
2022-09-06T03:38:21.055Z,45.75
2022-09-06T03:40:48.499Z,45.37
2022-09-06T03:43:17.153Z,45.34
2022-09-06T03:46:02.694Z,45.37
2022-09-06T03:48:30.063Z,46.08
2022-09-06T03:50:58.264Z,45.88
2022-09-06T03:53:27.254Z,45.98
2022-09-06T03:55:55.876Z,45.59
2022-09-06T03:58:24.564Z,45.90
2022-09-06T04:01:00.634Z,45.71
2022-09-06T04:03:27.365Z,45.67
2022-09-06T04:05:54.092Z,46.04
2022-09-06T04:08:20.928Z,45.98
2022-09-06T04:10:51.024Z,45.67
2022-09-06T04:13:17.943Z,45.71
2022-09-06T04:15:48.103Z,45.75
2022-09-06T04:18:15.528Z,45.22
2022-09-06T04:20:42.394Z,45.31
2022-09-06T04:23:09.408Z,46.25
2022-09-06T04:25:36.099Z,45.62
2022-09-06T04:28:02.971Z,45.45
2022-09-06T04:30:29.763Z,45.25
2022-09-06T04:32:56.461Z,45.60
2022-09-06T04:35:23.304Z,45.13
2022-09-06T04:37:50.113Z,45.22
2022-09-06T04:40:17.074Z,44.78
2022-09-06T04:42:43.770Z,45.34
2022-09-06T04:45:10.874Z,45.57
2022-09-06T04:47:37.907Z,46.25
2022-09-06T04:50:04.731Z,45.49
2022-09-06T04:52:31.460Z,46.22
2022-09-06T04:54:58.103Z,45.57
2022-09-06T04:57:24.894Z,45.60
2022-09-06T04:59:51.581Z,44.49
2022-09-06T05:02:18.369Z,45.00
2022-09-06T05:04:45.092Z,44.71
2022-09-06T05:07:11.971Z,44.18
2022-09-06T05:09:38.615Z,44.45
2022-09-06T05:12:05.640Z,44.30
2022-09-06T05:14:32.400Z,45.26
2022-09-06T05:16:59.235Z,44.57
2022-09-06T05:19:25.884Z,44.62
2022-09-06T05:21:52.785Z,44.19
2022-09-06T05:24:19.539Z,44.06
2022-09-06T05:26:46.307Z,43.95
2022-09-06T05:29:15.912Z,44.06
2022-09-06T05:31:42.736Z,43.86
2022-09-06T05:34:10.528Z,43.48
2022-09-06T05:36:38.800Z,44.00
2022-09-06T05:39:05.495Z,44.01
2022-09-06T05:41:33.794Z,43.67
2022-09-06T05:44:00.503Z,43.94
2022-09-06T05:46:27.269Z,44.20
2022-09-06T05:49:01.318Z,44.02
2022-09-06T05:51:28.168Z,43.35
2022-09-06T05:53:54.845Z,43.00
2022-09-06T05:56:22.667Z,43.12
2022-09-06T05:58:49.430Z,43.22
2022-09-06T06:01:22.016Z,43.54
2022-09-06T06:03:54.177Z,43.24
2022-09-06T06:06:22.009Z,43.76
2022-09-06T06:08:48.845Z,43.41
2022-09-06T06:11:16.054Z,43.54
2022-09-06T06:13:43.339Z,43.36
2022-09-06T06:16:11.230Z,43.67
2022-09-06T06:18:38.425Z,43.07
2022-09-06T06:21:29.176Z,43.79
2022-09-06T06:23:58.304Z,43.28
2022-09-06T06:26:26.293Z,42.98
2022-09-06T06:28:53.621Z,43.11
2022-09-06T06:31:22.605Z,43.08
2022-09-06T06:33:50.602Z,43.60
2022-09-06T06:36:17.277Z,42.77
2022-09-06T06:38:45.627Z,42.28
2022-09-06T06:41:14.909Z,42.79
2022-09-06T06:43:42.051Z,42.18
2022-09-06T06:46:15.129Z,42.95
2022-09-06T06:48:43.745Z,42.83
2022-09-06T06:51:12.806Z,42.40
2022-09-06T06:53:39.747Z,42.54
2022-09-06T06:56:27.662Z,41.78
2022-09-06T06:58:57.769Z,42.78
2022-09-06T07:01:26.467Z,42.08
2022-09-06T07:03:54.413Z,41.89
2022-09-06T07:06:22.449Z,42.19
2022-09-06T07:09:09.008Z,41.44
2022-09-06T07:11:35.709Z,42.07
2022-09-06T07:14:02.412Z,41.83
2022-09-06T07:16:30.031Z,41.98
2022-09-06T07:18:56.830Z,42.24
2022-09-06T07:21:42.552Z,42.17
2022-09-06T07:24:09.831Z,41.70
2022-09-06T07:26:38.917Z,41.29
2022-09-06T07:29:07.354Z,41.52
2022-09-06T07:34:22.218Z,40.91
2022-09-06T07:36:51.756Z,40.54
2022-09-06T07:39:18.483Z,41.58
2022-09-06T07:41:45.129Z,41.37
2022-09-06T07:44:11.946Z,41.10
2022-09-06T07:46:38.947Z,41.28
2022-09-06T07:49:06.684Z,41.51
2022-09-06T07:51:33.583Z,41.42
2022-09-06T07:54:34.685Z,41.17
2022-09-06T07:56:47.845Z,41.20
2022-09-06T07:59:14.595Z,41.94
2022-09-06T08:01:42.083Z,41.70
2022-09-06T08:04:14.243Z,43.01
2022-09-06T08:09:35.976Z,41.80
2022-09-06T08:12:06.800Z,41.31
2022-09-06T08:14:35.807Z,41.52
2022-09-06T08:17:03.723Z,41.82
2022-09-06T08:19:30.552Z,41.76
2022-09-06T08:21:57.308Z,41.65
2022-09-06T08:24:24.101Z,42.58
2022-09-06T08:26:50.908Z,41.88
2022-09-06T08:29:19.877Z,42.71
2022-09-06T08:31:47.534Z,42.68
2022-09-06T08:34:15.267Z,41.73
2022-09-06T08:36:42.592Z,41.96
2022-09-06T08:39:10.187Z,41.72
2022-09-06T08:41:56.052Z,41.46
2022-09-06T08:47:20.262Z,41.99
2022-09-06T08:50:06.849Z,42.39
2022-09-06T08:52:49.730Z,41.53
2022-09-06T08:55:31.480Z,41.30
2022-09-06T08:57:58.175Z,41.48
2022-09-06T09:00:25.383Z,41.82
2022-09-06T09:03:04.263Z,40.64
2022-09-06T09:05:34.904Z,42.39
2022-09-06T09:08:06.531Z,40.66
2022-09-06T09:10:47.360Z,40.16
2022-09-06T09:13:25.089Z,39.27
2022-09-06T09:15:52.694Z,38.66
2022-09-06T09:18:25.012Z,38.39
2022-09-06T09:20:52.010Z,38.47
2022-09-06T09:23:18.750Z,38.53
2022-09-06T09:25:47.238Z,39.28
2022-09-06T09:28:17.616Z,38.21
2022-09-06T09:30:50.918Z,37.93
2022-09-06T09:33:29.444Z,39.72
2022-09-06T09:36:10.202Z,38.11
2022-09-06T09:38:45.872Z,39.88
2022-09-06T09:41:30.071Z,38.95
2022-09-06T09:44:04.946Z,38.64
2022-09-06T09:46:36.823Z,38.22
2022-09-06T09:49:06.381Z,38.34
2022-09-06T09:51:36.692Z,37.48
2022-09-06T09:54:09.256Z,37.88
2022-09-06T09:56:41.181Z,38.57
2022-09-06T09:59:18.935Z,37.52
2022-09-06T10:01:45.665Z,38.42
2022-09-06T10:07:09.851Z,37.36
2022-09-06T10:09:39.520Z,37.77
2022-09-06T10:12:06.479Z,37.66
2022-09-06T10:14:45.575Z,37.44
2022-09-06T10:17:21.609Z,37.10
2022-09-06T10:19:48.992Z,37.15
2022-09-06T10:22:26.234Z,37.09
2022-09-06T10:25:23.681Z,38.62
2022-09-06T10:28:18.054Z,37.92
2022-09-06T10:31:10.287Z,37.09
2022-09-06T10:33:46.155Z,36.78
2022-09-06T10:36:19.357Z,36.97
2022-09-06T10:38:55.466Z,35.37
2022-09-06T10:41:29.690Z,34.74
2022-09-06T10:44:08.696Z,34.86
2022-09-06T10:46:36.984Z,34.99
2022-09-06T10:49:03.753Z,34.40
2022-09-06T10:51:57.767Z,33.99
2022-09-06T10:54:25.053Z,33.88
2022-09-06T11:00:14.907Z,33.90
2022-09-06T11:05:44.300Z,35.16
2022-09-06T11:08:51.165Z,34.32
2022-09-06T11:11:35.654Z,34.47
2022-09-06T11:14:09.607Z,32.43
2022-09-06T11:16:48.645Z,33.56
2022-09-06T11:19:31.922Z,29.45
2022-09-06T11:22:37.813Z,28.09
2022-09-06T11:25:34.754Z,26.70
2022-09-06T11:28:05.566Z,26.46
2022-09-06T11:30:32.657Z,26.55
2022-09-06T11:33:27.554Z,28.43
2022-09-06T11:36:14.836Z,29.08
2022-09-06T11:38:42.905Z,31.77
2022-09-06T11:41:16.382Z,33.00
2022-09-06T11:43:49.503Z,32.27
2022-09-06T11:46:34.615Z,34.67
2022-09-06T11:49:02.884Z,35.62
2022-09-06T11:51:37.321Z,35.17
2022-09-06T11:54:06.651Z,34.81
2022-09-06T11:56:43.163Z,36.41
2022-09-06T11:59:19.272Z,36.05
2022-09-06T12:01:58.235Z,36.74
2022-09-06T12:05:00.951Z,36.09
2022-09-06T12:07:29.432Z,36.51
2022-09-06T12:09:56.203Z,36.24
2022-09-06T12:12:45.925Z,35.39
2022-09-06T12:15:32.060Z,34.73
2022-09-06T12:18:00.204Z,36.95
2022-09-06T12:20:48.655Z,35.84
2022-09-06T12:23:38.438Z,35.78
2022-09-06T12:26:07.153Z,36.20
2022-09-06T12:28:39.860Z,37.47
2022-09-06T12:31:46.927Z,38.08
2022-09-06T12:34:20.120Z,37.70
2022-09-06T12:36:54.190Z,38.09
2022-09-06T12:39:22.038Z,36.56
2022-09-06T12:42:02.948Z,35.91
2022-09-06T12:44:38.777Z,36.80
2022-09-06T12:47:23.322Z,36.70
2022-09-06T12:50:19.405Z,35.80
2022-09-06T12:52:47.342Z,36.17
2022-09-06T12:55:18.876Z,35.24
2022-09-06T12:57:51.891Z,34.75
2022-09-06T13:00:19.859Z,35.68
2022-09-06T13:03:02.877Z,36.42
2022-09-06T13:05:30.098Z,36.42
2022-09-06T13:08:00.416Z,35.78
2022-09-06T13:10:29.049Z,34.56
2022-09-06T13:12:58.665Z,35.17
2022-09-06T13:15:32.071Z,34.87
2022-09-06T13:18:31.070Z,35.01
2022-09-06T13:21:01.669Z,34.74
2022-09-06T13:23:28.387Z,34.64
2022-09-06T13:25:56.051Z,34.99
2022-09-06T13:28:27.346Z,34.84
2022-09-06T13:31:08.251Z,34.29
2022-09-06T13:33:36.307Z,34.18
2022-09-06T13:36:12.298Z,34.34
2022-09-06T13:38:39.171Z,35.46
2022-09-06T13:41:24.734Z,35.55
2022-09-06T13:44:28.293Z,34.81
2022-09-06T13:46:55.410Z,33.49
2022-09-06T13:49:25.829Z,34.31
2022-09-06T13:51:54.452Z,31.81
2022-09-06T13:54:22.728Z,31.14
2022-09-06T13:56:50.164Z,30.33
2022-09-06T13:59:17.652Z,29.23
2022-09-06T14:01:47.439Z,27.40
2022-09-06T14:04:21.562Z,26.10
2022-09-06T14:06:48.998Z,26.63
2022-09-06T14:09:15.688Z,25.64
2022-09-06T14:11:47.526Z,25.63
2022-09-06T14:14:15.475Z,24.65
2022-09-06T14:16:42.108Z,23.67
2022-09-06T14:19:08.806Z,24.38
2022-09-06T14:21:35.827Z,24.99
2022-09-06T14:24:04.594Z,23.11
2022-09-06T14:26:32.199Z,24.03
2022-09-06T14:28:59.321Z,24.51
2022-09-06T14:31:32.726Z,25.66
2022-09-06T14:34:00.951Z,27.95
2022-09-06T14:36:29.558Z,28.87
2022-09-06T14:38:58.236Z,28.44
2022-09-06T14:41:25.668Z,31.03
2022-09-06T14:43:55.030Z,31.10
2022-09-06T14:46:23.540Z,32.40
2022-09-06T14:49:06.152Z,32.55
2022-09-06T14:51:34.678Z,34.23
2022-09-06T14:54:07.776Z,35.24
2022-09-06T14:56:35.152Z,34.60
2022-09-06T14:59:02.027Z,35.18
2022-09-06T15:01:32.943Z,35.58
2022-09-06T15:04:04.578Z,35.84
2022-09-06T15:06:33.517Z,36.62
2022-09-06T15:09:00.661Z,36.40
2022-09-06T15:11:42.947Z,35.99
2022-09-06T15:14:15.729Z,37.06
2022-09-06T15:16:43.389Z,36.23
2022-09-06T15:19:10.297Z,36.14
2022-09-06T15:21:36.874Z,36.51
2022-09-06T15:24:07.396Z,37.07
2022-09-06T15:26:37.822Z,37.05
2022-09-06T15:29:04.497Z,36.16
2022-09-06T15:31:34.383Z,35.92
2022-09-06T15:34:02.797Z,36.06
2022-09-06T15:36:30.056Z,35.75
2022-09-06T15:39:01.040Z,37.12
2022-09-06T15:41:31.142Z,37.23
2022-09-06T15:44:00.129Z,36.53
2022-09-06T15:46:32.988Z,36.14
2022-09-06T15:48:59.778Z,36.73
2022-09-06T15:51:26.520Z,37.61
2022-09-06T15:53:53.250Z,36.48
2022-09-06T15:56:20.273Z,38.09
2022-09-06T15:58:47.886Z,37.09
2022-09-06T16:01:17.099Z,37.24
2022-09-06T16:03:46.110Z,37.11
2022-09-06T16:06:31.421Z,36.63
2022-09-06T16:09:01.057Z,35.97
2022-09-06T16:11:30.078Z,35.22
2022-09-06T16:13:57.007Z,35.45
2022-09-06T16:16:24.258Z,35.69
2022-09-06T16:18:52.306Z,34.84
2022-09-06T16:21:25.001Z,35.38
2022-09-06T16:23:54.886Z,36.20
2022-09-06T16:26:23.478Z,34.58
2022-09-06T16:28:51.873Z,36.38
2022-09-06T16:31:20.171Z,35.16
2022-09-06T16:33:49.005Z,34.34
2022-09-06T16:36:17.228Z,34.74
2022-09-06T16:38:44.229Z,34.88
2022-09-06T16:41:32.887Z,35.65
2022-09-06T16:43:59.600Z,35.87
2022-09-06T16:46:28.902Z,36.91
2022-09-06T16:48:58.021Z,38.13
2022-09-06T16:51:25.566Z,38.52
2022-09-06T16:53:52.828Z,38.61
2022-09-06T16:56:22.416Z,37.98
2022-09-06T16:58:52.151Z,38.04
2022-09-06T17:01:19.805Z,38.41
2022-09-06T17:03:47.680Z,39.54
2022-09-06T17:06:14.890Z,39.12
2022-09-06T17:08:41.752Z,39.45
2022-09-06T17:11:13.649Z,39.73
2022-09-06T17:13:40.761Z,40.09
2022-09-06T17:16:25.765Z,39.80
2022-09-06T17:18:53.758Z,40.50
2022-09-06T17:21:25.089Z,40.20
2022-09-06T17:23:52.889Z,40.19
2022-09-06T17:26:21.364Z,40.48
2022-09-06T17:28:49.719Z,40.97
2022-09-06T17:31:22.194Z,41.81
2022-09-06T17:33:50.666Z,41.43
2022-09-06T17:36:21.262Z,41.06
2022-09-06T17:38:52.875Z,40.74
2022-09-06T17:41:45.819Z,41.13
2022-09-06T17:44:16.571Z,41.37
2022-09-06T17:47:02.765Z,41.23
2022-09-06T17:49:30.961Z,41.41
2022-09-06T17:51:58.437Z,41.72
2022-09-06T17:54:25.625Z,41.90
2022-09-06T17:56:52.296Z,41.43
2022-09-06T17:59:18.991Z,41.84
2022-09-06T18:01:46.491Z,42.20
2022-09-06T18:04:14.588Z,42.31
2022-09-06T18:06:43.198Z,43.52
2022-09-06T18:09:12.832Z,42.94
2022-09-06T18:11:40.273Z,42.73
2022-09-06T18:14:15.969Z,42.52
2022-09-06T18:16:45.389Z,42.81
2022-09-06T18:19:12.484Z,42.23
2022-09-06T18:21:41.043Z,42.43
2022-09-06T18:24:09.410Z,43.11
2022-09-06T18:26:36.848Z,42.31
2022-09-06T18:29:07.023Z,42.34
2022-09-06T18:31:34.037Z,42.43
2022-09-06T18:34:00.747Z,42.59
2022-09-06T18:36:32.043Z,43.49
2022-09-06T18:39:04.139Z,43.98
2022-09-06T18:41:50.702Z,43.64
2022-09-06T18:44:17.638Z,43.68
2022-09-06T18:46:44.724Z,44.27
2022-09-06T18:49:13.759Z,43.40
2022-09-06T18:51:41.255Z,43.40
2022-09-06T18:54:08.258Z,43.04
2022-09-06T18:56:34.916Z,43.01
2022-09-06T18:59:02.229Z,42.69
2022-09-06T19:01:30.243Z,43.25
2022-09-06T19:03:58.115Z,43.76
2022-09-06T19:06:25.851Z,43.26
2022-09-06T19:08:53.862Z,43.15
2022-09-06T19:11:21.918Z,43.88
2022-09-06T19:13:54.159Z,43.92
2022-09-06T19:16:22.359Z,44.17
2022-09-06T19:18:49.557Z,45.54
2022-09-06T19:21:17.639Z,44.83
2022-09-06T19:23:46.603Z,44.70
2022-09-06T19:26:17.728Z,45.23
2022-09-06T19:28:50.404Z,44.36
2022-09-06T19:31:18.558Z,45.14
2022-09-06T19:33:47.268Z,46.21
2022-09-06T19:36:15.006Z,45.88
2022-09-06T19:39:02.027Z,46.03
2022-09-06T19:41:30.119Z,46.72
2022-09-06T19:43:58.156Z,46.82
2022-09-06T19:46:25.698Z,46.36
2022-09-06T19:48:55.892Z,45.97
2022-09-06T19:51:24.083Z,46.10
2022-09-06T19:53:53.447Z,46.83
2022-09-06T19:56:26.135Z,46.06
2022-09-06T19:58:57.897Z,46.89
2022-09-06T20:01:26.586Z,46.58
2022-09-06T20:03:53.419Z,46.87
2022-09-06T20:06:20.841Z,46.99
2022-09-06T20:08:53.386Z,47.32
2022-09-06T20:11:22.499Z,46.89
2022-09-06T20:13:49.452Z,46.94
2022-09-06T20:16:19.266Z,46.67
2022-09-06T20:18:48.392Z,47.05
2022-09-06T20:21:17.876Z,47.09
2022-09-06T20:23:49.445Z,47.62
2022-09-06T20:26:16.811Z,47.12
2022-09-06T20:28:44.221Z,48.21
2022-09-06T20:31:17.315Z,49.25
2022-09-06T20:33:49.531Z,49.05
2022-09-06T20:36:18.033Z,49.25
2022-09-06T20:38:45.954Z,48.96
2022-09-06T20:41:21.056Z,48.81
2022-09-06T20:43:52.728Z,47.71
2022-09-06T20:46:22.043Z,47.95
2022-09-06T20:48:49.098Z,48.33
2022-09-06T20:51:23.590Z,48.86
2022-09-06T20:53:55.823Z,48.59
2022-09-06T20:56:26.905Z,48.42
2022-09-06T20:58:55.636Z,49.27
2022-09-06T21:01:25.064Z,50.13
2022-09-06T21:03:57.226Z,50.71
2022-09-06T21:06:25.614Z,50.74
2022-09-06T21:08:52.448Z,52.03
2022-09-06T21:11:19.621Z,50.62
2022-09-06T21:13:55.876Z,50.70
2022-09-06T21:16:24.962Z,51.18
2022-09-06T21:18:53.895Z,50.98
2022-09-06T21:21:20.679Z,50.97
2022-09-06T21:23:47.375Z,51.82
2022-09-06T21:26:17.993Z,52.04
2022-09-06T21:28:46.148Z,52.34
2022-09-06T21:31:14.198Z,51.65
2022-09-06T21:33:46.204Z,51.41
2022-09-06T21:36:19.300Z,51.07
2022-09-06T21:38:48.947Z,51.47
2022-09-06T21:41:18.346Z,52.77
2022-09-06T21:43:45.547Z,52.43
2022-09-06T21:46:17.785Z,53.05
2022-09-06T21:48:46.952Z,52.98
2022-09-06T21:51:16.077Z,52.83
2022-09-06T21:53:44.703Z,53.01
2022-09-06T21:56:11.793Z,52.60
2022-09-06T21:58:39.170Z,51.89
2022-09-06T22:01:06.342Z,52.00
2022-09-06T22:03:35.951Z,51.89
2022-09-06T22:06:17.779Z,51.50
2022-09-06T22:08:45.259Z,51.55
2022-09-06T22:11:12.797Z,51.39
2022-09-06T22:13:40.420Z,51.53
2022-09-06T22:16:08.143Z,51.51
2022-09-06T22:18:35.581Z,52.10
2022-09-06T22:21:07.763Z,51.60
2022-09-06T22:23:34.991Z,51.55
2022-09-06T22:26:07.578Z,51.58
2022-09-06T22:28:34.747Z,52.15
2022-09-06T22:31:01.532Z,52.08
2022-09-06T22:33:28.259Z,51.95
2022-09-06T22:35:55.798Z,51.89
2022-09-06T22:38:22.451Z,52.19
2022-09-06T22:40:49.250Z,51.89
2022-09-06T22:43:16.006Z,52.50
2022-09-06T22:45:49.821Z,52.49
2022-09-06T22:48:18.480Z,52.85
2022-09-06T22:50:45.876Z,53.54
2022-09-06T22:53:12.723Z,53.60
2022-09-06T22:55:39.432Z,53.43
2022-09-06T22:58:06.143Z,52.70
2022-09-06T23:00:36.054Z,52.84
2022-09-06T23:03:03.032Z,52.57
2022-09-06T23:05:31.372Z,52.36
2022-09-06T23:08:00.269Z,52.13
2022-09-06T23:10:27.644Z,53.18
2022-09-06T23:12:54.789Z,52.12
2022-09-06T23:15:21.811Z,51.95
2022-09-06T23:17:48.551Z,52.36
2022-09-06T23:20:15.260Z,52.35
2022-09-06T23:22:42.334Z,53.81
2022-09-06T23:25:09.568Z,53.44
2022-09-06T23:27:36.152Z,53.93
2022-09-06T23:30:03.702Z,54.30
2022-09-06T23:32:32.759Z,54.14
2022-09-06T23:34:59.400Z,55.31
2022-09-06T23:37:26.052Z,55.31
2022-09-06T23:39:52.765Z,56.94
2022-09-06T23:42:20.063Z,55.77
2022-09-06T23:44:46.707Z,56.30
2022-09-06T23:47:13.442Z,55.34
2022-09-06T23:49:40.090Z,56.13
2022-09-06T23:52:07.122Z,55.18
2022-09-06T23:54:33.758Z,55.34
2022-09-06T23:57:00.419Z,56.51
2022-09-06T23:59:27.067Z,56.34
